FW3089 Weather Reports


Display with metric or nautical units.
time (UTC)temp
F
wind
direction
speed
MPH
gust
MPH
rain 1hr
in
rain 24hr
in
rain mn
in
humidity
%
barometer
mb
20190819183512 63 266 8.0 18.0 0.00 0.08 0.08 70 1017.1
20190819183013 64 265 9.0 18.0 0.00 0.08 0.08 69 1017.3
20190819182512 64 264 9.0 19.0 0.00 0.08 0.08 69 1017.1
20190819182008 64 258 8.0 19.0 0.00 0.08 0.08 69 1017.1
20190819181511 64 246 7.0 18.0 0.00 0.08 0.08 71 1017.2
20190819181012 63 238 7.0 14.0 0.00 0.08 0.08 72 1017.1
20190819180512 63 233 8.0 16.0 0.00 0.08 0.08 71 1017.1
20190819180012 63 233 8.0 16.0 0.00 0.08 0.08 71 1017.0
20190819175511 64 236 8.0 16.0 0.00 0.08 0.08 70 1017.1
20190819175012 64 229 9.0 18.0 0.00 0.08 0.08 69 1017.0
20190819174512 64 229 11.0 19.0 0.00 0.08 0.08 67 1016.9
20190819174008 65 245 10.0 19.0 0.00 0.08 0.08 66 1016.9
20190819173512 65 260 8.0 16.0 0.00 0.08 0.08 69 1016.8
20190819173012 64 265 8.0 19.0 0.00 0.08 0.08 71 1016.7
20190819172512 65 268 9.0 19.0 0.00 0.08 0.08 70 1016.7
20190819172012 65 270 9.0 19.0 0.00 0.08 0.08 69 1016.7
20190819171511 65 271 10.0 19.0 0.00 0.08 0.08 68 1016.8
20190819171011 65 274 11.0 19.0 0.00 0.08 0.08 68 1016.6
20190819170511 65 270 11.0 19.0 0.00 0.08 0.08 68 1016.6
20190819170013 65 265 10.0 19.0 0.00 0.08 0.08 68 1016.6
20190819165512 66 266 10.0 16.0 0.00 0.08 0.08 67 1016.6
20190819165012 66 263 9.0 15.0 0.00 0.08 0.08 68 1016.6
20190819164512 66 267 9.0 22.0 0.00 0.08 0.08 69 1016.6
20190819164012 66 271 9.0 22.0 0.00 0.08 0.08 68 1016.7
20190819163512 66 270 9.0 17.0 0.00 0.08 0.08 67 1016.5
20190819163011 66 267 9.0 17.0 0.00 0.08 0.08 68 1016.5
20190819162508 66 270 10.0 20.0 0.00 0.08 0.08 67 1016.5
20190819161509 66 271 11.0 20.0 0.00 0.08 0.08 67 1016.5
20190819161011 66 269 12.0 20.0 0.00 0.08 0.08 67 1016.5
20190819160511 66 266 10.0 19.0 0.00 0.08 0.08 66 1016.5
20190819160011 66 268 10.0 19.0 0.00 0.08 0.08 67 1016.4
20190819155509 66 269 11.0 18.0 0.00 0.08 0.08 67 1016.4
20190819155012 66 269 10.0 18.0 0.00 0.08 0.08 68 1016.3
20190819154511 66 268 9.0 18.0 0.00 0.08 0.08 68 1016.4
20190819154011 66 271 10.0 18.0 0.00 0.08 0.08 66 1016.4
20190819153512 66 273 10.0 19.0 0.00 0.08 0.08 67 1016.3
20190819152511 66 274 13.0 22.0 0.00 0.08 0.08 67 1016.3
20190819152008 66 272 13.0 22.0 0.00 0.08 0.08 66 1016.3
20190819150511 66 269 12.0 21.0 0.00 0.09 0.08 64 1016.3
20190819150012 67 271 11.0 18.0 0.00 0.09 0.08 64 1016.1
20190819145007 66 270 12.0 23.0 0.00 0.09 0.08 66 1016.1
20190819144511 66 272 14.0 26.0 0.00 0.09 0.08 66 1016.1
20190819143509 66 274 13.0 22.0 0.00 0.09 0.08 68 1016.1
20190819143008 66 274 14.0 26.0 0.00 0.09 0.08 65 1016.0
20190819142509 66 273 14.0 26.0 0.00 0.09 0.08 67 1016.0
20190819142008 66 272 12.0 23.0 0.00 0.09 0.08 66 1016.0
20190819141509 67 270 11.0 23.0 0.00 0.09 0.08 66 1016.0
20190819141009 67 269 10.0 23.0 0.00 0.09 0.08 66 1016.0
20190819140509 66 269 10.0 18.0 0.00 0.09 0.08 68 1015.9
20190819140008 66 271 12.0 23.0 0.00 0.09 0.08 67 1015.8
20190819135508 66 270 12.0 23.0 0.00 0.09 0.08 67 1015.9
20190819135008 66 266 11.0 21.0 0.00 0.09 0.08 67 1015.8
20190819134508 66 267 12.0 21.0 0.01 0.09 0.08 66 1015.9
20190819134008 66 269 12.0 23.0 0.01 0.09 0.08 68 1015.7
20190819133508 66 269 13.0 23.0 0.01 0.09 0.08 69 1015.8
20190819133009 65 270 13.0 24.0 0.01 0.09 0.08 68 1015.7
20190819132507 66 270 12.0 24.0 0.01 0.09 0.08 67 1015.8
20190819132007 66 267 11.0 24.0 0.01 0.09 0.08 68 1015.7
20190819131509 66 267 11.0 24.0 0.01 0.09 0.08 68 1015.6
20190819131009 65 262 11.0 21.0 0.01 0.09 0.08 67 1015.7
20190819130509 65 259 10.0 21.0 0.01 0.09 0.08 68 1015.7
20190819130009 65 266 10.0 21.0 0.01 0.09 0.08 69 1015.6
20190819125508 65 267 11.0 21.0 0.01 0.09 0.08 69 1015.6
20190819125008 65 264 10.0 22.0 0.01 0.09 0.08 70 1015.5
20190819124509 66 267 10.0 22.0 0.00 0.08 0.07 69 1015.5
20190819124008 66 264 10.0 19.0 0.00 0.08 0.07 70 1015.4
20190819123508 65 258 11.0 24.0 0.00 0.08 0.07 71 1015.4
20190819123008 65 261 10.0 24.0 0.00 0.08 0.07 71 1015.3
20190819122508 65 265 10.0 21.0 0.00 0.08 0.07 72 1015.2
20190819122007 65 267 11.0 23.0 0.00 0.08 0.07 70 1015.2
20190819121508 65 268 11.0 23.0 0.00 0.08 0.07 71 1015.0
20190819121008 65 269 10.0 20.0 0.00 0.08 0.07 73 1015.0
20190819120508 65 270 9.0 17.0 0.00 0.08 0.07 74 1014.9
20190819120008 64 272 11.0 23.0 0.00 0.08 0.07 73 1015.0
20190819115509 64 270 12.0 24.0 0.00 0.08 0.07 73 1014.8
20190819115008 64 258 12.0 24.0 0.00 0.08 0.07 74 1014.8
20190819114508 64 254 11.0 22.0 0.00 0.08 0.07 73 1014.6
20190819114008 64 258 10.0 20.0 0.00 0.08 0.07 75 1014.6
20190819113508 64 259 10.0 23.0 0.00 0.08 0.07 75 1014.6
20190819113008 64 262 9.0 23.0 0.00 0.08 0.07 75 1014.6
20190819112508 64 265 10.0 18.0 0.00 0.08 0.07 76 1014.5
20190819112008 63 262 8.0 18.0 0.00 0.08 0.07 78 1014.5
20190819111507 62 252 8.0 18.0 0.00 0.08 0.07 82 1014.5
20190819111009 62 246 9.0 17.0 0.00 0.08 0.07 79 1014.5
20190819110509 62 249 9.0 18.0 0.00 0.08 0.07 77 1014.5
20190819110008 62 257 8.0 18.0 0.00 0.08 0.07 77 1014.4
20190819105508 62 256 9.0 15.0 0.00 0.08 0.07 77 1014.3
20190819105007 62 255 8.0 17.0 0.00 0.08 0.07 78 1014.3
20190819104509 62 261 8.0 17.0 0.00 0.08 0.07 78 1014.3
20190819104007 63 263 8.0 17.0 0.00 0.08 0.07 79 1014.2
20190819103508 63 267 8.0 16.0 0.00 0.08 0.07 80 1014.1
20190819103007 62 271 10.0 20.0 0.00 0.08 0.07 80 1014.2
20190819102509 62 268 9.0 20.0 0.00 0.08 0.07 78 1014.1
20190819102008 62 256 9.0 19.0 0.00 0.08 0.07 81 1014.1
20190819101508 62 255 8.0 19.0 0.00 0.08 0.07 80 1014.1
20190819101008 62 268 8.0 15.0 0.01 0.08 0.07 81 1014.0
20190819100508 61 275 8.0 15.0 0.01 0.08 0.07 82 1013.9
20190819100009 61 274 9.0 16.0 0.01 0.08 0.07 81 1013.9
20190819095508 62 258 9.0 16.0 0.02 0.08 0.07 80 1014.0
20190819095008 62 230 8.0 16.0 0.02 0.08 0.07 82 1014.0
20190819094509 62 230 7.0 15.0 0.02 0.08 0.07 83 1013.7
20190819094010 61 244 6.0 11.0 0.02 0.08 0.07 84 1013.6
20190819093508 61 248 6.0 12.0 0.02 0.08 0.07 84 1013.7
20190819093009 60 252 5.0 12.0 0.02 0.08 0.07 84 1013.6
20190819092507 61 249 5.0 13.0 0.02 0.08 0.07 85 1013.6
20190819092010 60 247 7.0 17.0 0.02 0.08 0.07 84 1013.6
20190819091508 61 245 7.0 17.0 0.02 0.08 0.07 84 1013.6
20190819091009 61 246 7.0 13.0 0.01 0.07 0.06 84 1013.6
20190819090508 60 245 6.0 14.0 0.01 0.07 0.06 84 1013.4
20190819090008 60 241 7.0 14.0 0.01 0.07 0.06 83 1013.6
20190819085508 61 240 8.0 18.0 0.00 0.06 0.06 81 1013.5
20190819085007 62 232 8.0 18.0 0.00 0.06 0.06 80 1013.5
20190819084508 62 225 8.0 17.0 0.00 0.06 0.06 80 1013.2
20190819084007 62 226 7.0 15.0 0.00 0.06 0.06 81 1013.2
20190819083508 61 221 7.0 12.0 0.00 0.06 0.06 82 1013.1
20190819083007 61 216 6.0 12.0 0.00 0.06 0.06 83 1013.1
20190819082508 60 219 5.0 11.0 0.00 0.06 0.06 84 1013.0
20190819082007 60 218 5.0 11.0 0.01 0.06 0.06 84 1013.0
20190819081509 60 214 5.0 10.0 0.01 0.06 0.06 84 1013.0
20190819081008 60 224 4.0 10.0 0.02 0.06 0.06 85 1012.9
20190819080508 60 240 5.0 11.0 0.06 0.06 0.06 85 1012.8
20190819080007 59 249 5.0 11.0 0.06 0.06 0.06 85 1012.8
20190819075508 59 260 4.0 9.0 0.06 0.06 0.06 84 1012.8
20190819075007 59 264 5.0 11.0 0.06 0.06 0.06 84 1012.7
20190819074508 59 256 7.0 15.0 0.06 0.06 0.06 85 1012.6
20190819074008 59 242 7.0 15.0 0.06 0.06 0.06 85 1012.7
20190819073508 59 228 6.0 12.0 0.06 0.06 0.06 85 1012.6
20190819073009 59 225 4.0 12.0 0.06 0.06 0.06 85 1012.6
20190819072509 59 222 2.0 9.0 0.06 0.06 0.06 85 1012.5
20190819072008 59 212 2.0 6.0 0.05 0.06 0.05 84 1012.5
20190819071511 59 217 3.0 11.0 0.05 0.06 0.05 84 1012.3
20190819071011 59 212 4.0 11.0 0.01 0.02 0.01 84 1012.4
20190819070511 59 210 4.0 10.0 0.00 0.01 0.00 84 1012.2
20190819070011 59 210 4.0 9.0 0.00 0.01 0.00 84 1012.2
20190819065510 59 206 3.0 9.0 0.00 0.01 0.00 84 1012.2
20190819065012 59 201 4.0 10.0 0.00 0.01 0.00 84 1012.1
20190819064511 59 198 5.0 10.0 0.00 0.01 0.00 85 1012.1
20190819063011 58 193 5.0 9.0 0.00 0.01 0.00 86 1011.9
20190819062007 57 188 6.0 11.0 0.00 0.01 0.00 85 1011.6
20190819061511 57 184 6.0 11.0 0.00 0.01 0.00 86 1011.4
20190819061012 56 184 6.0 11.0 0.00 0.01 0.00 86 1011.5
20190819055011 56 182 5.0 11.0 0.00 0.01 0.00 85 1011.3
20190819054510 56 183 5.0 11.0 0.00 0.01 0.00 85 1011.3
20190819054011 56 183 5.0 9.0 0.00 0.01 0.00 85 1011.3
20190819053510 56 183 5.0 8.0 0.00 0.01 0.00 85 1011.3
20190819052007 56 183 5.0 11.0 0.00 0.01 0.00 85 1011.1
20190819051510 56 185 5.0 10.0 0.00 0.01 0.00 85 1011.1
20190819050010 56 177 4.0 9.0 0.00 0.01 0.00 85 1010.9
20190819044510 56 185 5.0 9.0 0.00 0.01 0.00 85 1010.8
20190819044007 56 189 5.0 11.0 0.00 0.01 0.00 86 1010.8
20190819043511 56 187 5.0 11.0 0.00 0.01 0.00 86 1010.7
20190819043011 55 183 4.0 10.0 0.00 0.01 0.00 86 1010.8
20190819042511 55 176 3.0 7.0 0.00 0.01 0.00 86 1010.8
20190819041511 55 169 3.0 7.0 0.00 0.01 0.00 85 1010.8
20190819040012 55 168 3.0 6.0 0.00 0.01 0.00 84 1010.6
20190819035007 55 175 3.0 6.0 0.00 0.01 0.00 84 1010.6
20190819034510 56 173 3.0 5.0 0.00 0.01 0.00 84 1010.6
20190819034010 56 171 3.0 5.0 0.00 0.01 0.00 84 1010.6
20190819033010 56 196 3.0 6.0 0.00 0.01 0.00 84 1010.4
20190819032010 56 196 4.0 9.0 0.00 0.01 0.00 84 1010.3
20190819031510 56 189 4.0 8.0 0.00 0.01 0.00 84 1010.2
20190819030511 56 193 4.0 9.0 0.00 0.01 0.00 84 1010.1
20190819030008 56 193 3.0 9.0 0.00 0.01 0.00 84 1010.1
20190819025510 56 191 3.0 8.0 0.00 0.01 0.00 84 1010.1
20190819023511 56 192 3.0 9.0 0.00 0.01 0.00 84 1010.1
20190819023011 57 191 4.0 9.0 0.00 0.01 0.00 83 1010.0
20190819022517 57 192 4.0 8.0 0.00 0.01 0.00 83 1010.0
20190819020510 57 193 4.0 10.0 0.00 0.01 0.00 83 1010.0
20190819015010 57 199 5.0 10.0 0.00 0.01 0.00 83 1009.9
20190819014010 57 201 5.0 11.0 0.00 0.01 0.00 83 1010.0
20190819013010 57 202 4.0 12.0 0.00 0.01 0.00 83 1009.9
20190819012511 57 201 4.0 12.0 0.00 0.01 0.00 83 1009.9
20190819012010 57 203 4.0 9.0 0.00 0.01 0.00 83 1009.8
20190819011510 57 199 4.0 9.0 0.00 0.01 0.00 83 1010.0
20190819011010 57 194 5.0 13.0 0.00 0.01 0.00 84 1009.9
20190819010510 57 194 6.0 13.0 0.00 0.01 0.00 84 1009.9
20190819005007 57 188 5.0 10.0 0.00 0.01 0.00 84 1009.8
20190819004510 57 188 5.0 12.0 0.00 0.01 0.00 84 1009.9
20190819004010 57 189 5.0 12.0 0.00 0.01 0.00 83 1009.9
20190819003511 57 191 5.0 11.0 0.00 0.01 0.00 83 1009.9
20190819002010 57 190 6.0 13.0 0.00 0.01 0.00 83 1009.9
20190819001511 57 189 6.0 13.0 0.00 0.01 0.00 83 1009.8
20190819001011 57 189 6.0 12.0 0.00 0.01 0.00 83 1009.8
20190819000510 57 189 5.0 10.0 0.00 0.01 0.00 83 1009.8
20190819000011 57 189 5.0 10.0 0.00 0.01 0.00 83 1009.8
20190818235511 57 189 6.0 10.0 0.00 0.01 0.00 83 1009.7
20190818234507 57 188 6.0 11.0 0.00 0.01 0.00 83 1009.8
20190818233510 57 186 7.0 13.0 0.00 0.01 0.00 83 1009.8
20190818232510 58 189 6.0 11.0 0.00 0.01 0.00 82 1009.8
20190818230013 58 187 6.0 13.0 0.00 0.01 0.00 82 1009.7
20190818225510 58 186 6.0 13.0 0.00 0.01 0.01 82 1009.7
20190818225006 58 186 6.0 12.0 0.00 0.01 0.01 82 1009.6
20190818224009 58 188 7.0 12.0 0.00 0.01 0.01 81 1009.6
20190818223510 58 185 8.0 15.0 0.00 0.01 0.01 81 1009.6
20190818223010 59 188 8.0 15.0 0.00 0.01 0.01 81 1009.5
20190818222510 59 188 7.0 14.0 0.00 0.01 0.01 81 1009.4
20190818221507 59 189 7.0 14.0 0.00 0.01 0.01 81 1009.5
20190818221008 59 189 6.0 13.0 0.00 0.01 0.01 80 1009.6
20190818220507 59 190 7.0 13.0 0.00 0.01 0.01 80 1009.5
20190818220010 59 187 7.0 15.0 0.00 0.01 0.01 79 1009.5
20190818215508 60 185 7.0 15.0 0.00 0.01 0.01 79 1009.4
20190818215008 60 186 6.0 13.0 0.00 0.01 0.01 78 1009.4
20190818214510 60 195 6.0 12.0 0.00 0.01 0.01 78 1009.3
20190818214008 60 207 6.0 14.0 0.00 0.01 0.01 78 1009.3
20190818213508 60 212 7.0 14.0 0.00 0.01 0.01 78 1009.3
20190818213008 60 209 5.0 14.0 0.00 0.01 0.01 78 1009.3
20190818212508 60 204 4.0 10.0 0.00 0.01 0.01 78 1009.2
20190818212006 60 207 5.0 12.0 0.00 0.01 0.01 77 1009.1
20190818211510 60 215 6.0 15.0 0.00 0.01 0.01 77 1009.1
20190818211010 60 209 6.0 15.0 0.00 0.01 0.01 77 1008.9
20190818210011 60 198 4.0 12.0 0.00 0.01 0.01 78 1009.0
20190818205510 60 206 5.0 12.0 0.00 0.01 0.01 77 1008.9
20190818205010 60 208 6.0 13.0 0.00 0.01 0.01 77 1008.9
20190818204508 60 208 6.0 13.0 0.00 0.01 0.01 78 1009.0
20190818204010 60 202 5.0 12.0 0.00 0.01 0.01 77 1008.8
20190818203511 60 200 5.0 12.0 0.00 0.01 0.01 77 1008.8
20190818203010 60 202 5.0 12.0 0.00 0.01 0.01 77 1008.7
20190818202510 60 202 6.0 16.0 0.00 0.01 0.01 77 1008.7
20190818202006 60 206 6.0 16.0 0.00 0.01 0.01 77 1008.6
20190818201510 60 205 5.0 12.0 0.00 0.01 0.01 77 1008.6
20190818201010 61 206 6.0 13.0 0.00 0.01 0.01 77 1008.5
20190818200510 61 210 6.0 14.0 0.00 0.01 0.01 77 1008.4
20190818195510 61 215 6.0 13.0 0.00 0.01 0.01 76 1008.3
20190818195011 61 211 6.0 13.0 0.00 0.01 0.01 76 1008.3
20190818194508 61 211 7.0 14.0 0.00 0.01 0.01 76 1008.3
20190818194010 61 214 8.0 14.0 0.00 0.01 0.01 76 1008.2
20190818193510 61 212 7.0 14.0 0.00 0.01 0.01 76 1008.1
20190818193010 61 219 7.0 18.0 0.00 0.01 0.01 76 1008.1
20190818192510 62 224 8.0 18.0 0.00 0.01 0.01 75 1008.0
20190818192010 62 226 8.0 15.0 0.00 0.01 0.01 75 1008.1
20190818191510 62 226 9.0 17.0 0.00 0.01 0.01 75 1008.0
20190818191010 62 224 10.0 21.0 0.00 0.01 0.01 74 1007.8
20190818190510 62 224 10.0 21.0 0.00 0.01 0.01 74 1007.8
20190818190010 62 226 10.0 19.0 0.00 0.01 0.01 73 1007.8
20190818185510 62 229 9.0 17.0 0.00 0.01 0.01 73 1007.9
20190818185010 63 227 9.0 16.0 0.00 0.01 0.01 73 1007.8
20190818184510 63 224 9.0 16.0 0.00 0.01 0.01 72 1007.8
20190818184010 63 226 9.0 16.0 0.00 0.01 0.01 72 1007.7